createdAt,value
2018-07-26T00:01:02.888Z,20.80
2018-07-26T00:03:34.101Z,20.80
2018-07-26T00:06:04.980Z,20.70
2018-07-26T00:08:35.981Z,20.70
2018-07-26T00:11:07.262Z,20.60
2018-07-26T00:13:38.385Z,20.60
2018-07-26T00:16:09.125Z,20.60
2018-07-26T00:18:39.998Z,20.60
2018-07-26T00:21:10.461Z,20.60
2018-07-26T00:23:41.054Z,20.60
2018-07-26T00:26:11.977Z,20.50
2018-07-26T00:28:42.757Z,20.50
2018-07-26T00:31:13.657Z,20.50
2018-07-26T00:33:44.968Z,20.40
2018-07-26T00:36:15.429Z,20.40
2018-07-26T00:38:45.956Z,20.40
2018-07-26T00:41:16.883Z,20.40
2018-07-26T00:43:47.466Z,20.40
2018-07-26T00:46:17.981Z,20.30
2018-07-26T00:48:48.817Z,20.30
2018-07-26T00:51:19.343Z,20.30
2018-07-26T00:53:49.925Z,20.30
2018-07-26T00:56:20.832Z,20.30
2018-07-26T00:58:51.306Z,20.30
2018-07-26T01:01:21.762Z,20.30
2018-07-26T01:03:53.031Z,20.30
2018-07-26T01:06:23.601Z,20.30
2018-07-26T01:08:55.106Z,20.30
2018-07-26T01:11:26.058Z,20.20
2018-07-26T01:13:56.757Z,20.20
2018-07-26T01:16:27.241Z,20.20
2018-07-26T01:18:58.496Z,20.20
2018-07-26T01:21:28.991Z,20.20
2018-07-26T01:23:59.758Z,20.20
2018-07-26T01:26:30.630Z,20.20
2018-07-26T01:29:01.248Z,20.20
2018-07-26T01:31:32.113Z,20.20
2018-07-26T01:34:03.217Z,20.20
2018-07-26T01:36:33.684Z,20.10
2018-07-26T01:39:05.403Z,20.10
2018-07-26T01:41:35.853Z,20.10
2018-07-26T01:44:19.595Z,20.20
2018-07-26T01:46:50.123Z,20.30
2018-07-26T01:51:50.518Z,20.40
2018-07-26T01:54:21.025Z,20.50
2018-07-26T01:56:51.949Z,20.50
2018-07-26T01:59:22.631Z,20.50
2018-07-26T02:01:53.392Z,20.50
2018-07-26T02:04:24.645Z,20.50
2018-07-26T02:09:25.577Z,20.50
2018-07-26T02:11:56.505Z,20.50
2018-07-26T02:14:31.892Z,20.40
2018-07-26T02:17:02.401Z,20.40
2018-07-26T02:19:32.987Z,20.30
2018-07-26T02:22:04.091Z,20.30
2018-07-26T02:24:34.737Z,20.20
2018-07-26T02:27:05.291Z,20.20
2018-07-26T02:29:35.893Z,20.30
2018-07-26T02:32:06.638Z,20.30
2018-07-26T02:34:37.335Z,20.20
2018-07-26T02:37:08.426Z,20.20
2018-07-26T02:39:39.134Z,20.20
2018-07-26T02:42:09.717Z,20.30
2018-07-26T02:44:40.591Z,20.10
2018-07-26T02:47:11.358Z,20.00
2018-07-26T02:49:42.082Z,20.00
2018-07-26T02:52:13.035Z,20.00
2018-07-26T02:54:44.161Z,20.00
2018-07-26T02:57:14.742Z,20.00
2018-07-26T02:59:45.594Z,20.00
2018-07-26T03:02:16.162Z,20.00
2018-07-26T03:04:47.254Z,19.90
2018-07-26T03:07:17.978Z,19.90
2018-07-26T03:09:48.849Z,19.90
2018-07-26T03:12:19.774Z,19.80
2018-07-26T03:14:50.618Z,19.80
2018-07-26T03:17:21.154Z,19.70
2018-07-26T03:19:52.236Z,19.70
2018-07-26T03:22:22.785Z,19.60
2018-07-26T03:24:53.330Z,19.60
2018-07-26T03:27:24.298Z,19.50
2018-07-26T03:29:55.042Z,19.50
2018-07-26T03:32:25.576Z,19.50
2018-07-26T03:34:56.930Z,19.50
2018-07-26T03:37:28.010Z,19.50
2018-07-26T03:39:58.621Z,19.60
2018-07-26T03:42:29.714Z,19.70
2018-07-26T03:45:00.301Z,19.70
2018-07-26T03:47:30.855Z,19.70
2018-07-26T03:50:01.749Z,19.80
2018-07-26T03:52:32.421Z,19.80
2018-07-26T03:57:33.549Z,19.80
2018-07-26T04:00:04.649Z,19.80
2018-07-26T04:02:35.462Z,19.80
2018-07-26T04:07:36.497Z,19.80
2018-07-26T04:10:07.609Z,19.80
2018-07-26T04:12:38.130Z,19.90
2018-07-26T04:15:09.074Z,19.90
2018-07-26T04:17:39.696Z,20.00
2018-07-26T04:20:10.594Z,20.00
2018-07-26T04:22:41.545Z,20.10
2018-07-26T04:25:12.354Z,20.10
2018-07-26T04:27:42.829Z,20.20
2018-07-26T04:30:13.341Z,20.30
2018-07-26T04:32:43.861Z,20.30
2018-07-26T04:35:14.694Z,20.50
2018-07-26T04:37:45.161Z,20.50
2018-07-26T04:40:16.154Z,20.60
2018-07-26T04:42:47.285Z,20.60
2018-07-26T04:45:18.123Z,20.80
2018-07-26T04:47:48.617Z,20.80
2018-07-26T04:50:19.838Z,20.90
2018-07-26T04:52:50.512Z,21.00
2018-07-26T04:55:21.206Z,21.10
2018-07-26T04:57:52.274Z,21.20
2018-07-26T05:00:22.952Z,21.40
2018-07-26T05:02:53.500Z,21.50
2018-07-26T05:05:24.664Z,21.60
2018-07-26T05:07:55.162Z,21.70
2018-07-26T05:12:56.152Z,21.90
2018-07-26T05:15:26.958Z,22.00
2018-07-26T05:17:57.609Z,22.10
2018-07-26T05:20:28.801Z,22.20
2018-07-26T05:22:59.305Z,22.40
2018-07-26T05:25:30.411Z,22.50
2018-07-26T05:28:01.338Z,22.60
2018-07-26T05:30:32.474Z,22.70
2018-07-26T05:33:02.994Z,22.90
2018-07-26T05:35:34.150Z,23.00
2018-07-26T05:38:04.759Z,23.10
2018-07-26T05:40:35.445Z,23.30
2018-07-26T05:43:06.759Z,23.40
2018-07-26T05:45:37.673Z,23.50
2018-07-26T05:48:08.329Z,23.70
2018-07-26T05:50:39.362Z,23.80
2018-07-26T05:53:09.943Z,23.90
2018-07-26T05:55:40.877Z,24.00
2018-07-26T05:58:11.749Z,24.10
2018-07-26T06:00:42.578Z,24.20
2018-07-26T06:03:13.281Z,24.40
2018-07-26T06:05:45.120Z,24.50
2018-07-26T06:08:15.766Z,24.50
2018-07-26T06:10:46.877Z,24.70
2018-07-26T06:13:17.410Z,24.70
2018-07-26T06:15:48.201Z,24.80
2018-07-26T06:18:20.155Z,24.90
2018-07-26T06:20:50.866Z,25.00
2018-07-26T06:23:23.353Z,25.10
2018-07-26T06:25:54.185Z,25.10
2018-07-26T06:28:25.109Z,25.20
2018-07-26T06:30:57.913Z,25.30
2018-07-26T06:33:30.476Z,25.40
2018-07-26T06:36:04.213Z,25.50
2018-07-26T06:38:37.395Z,25.70
2018-07-26T06:45:46.605Z,25.80
2018-07-26T06:48:18.182Z,25.90
2018-07-26T06:50:49.034Z,25.90
2018-07-26T06:53:26.024Z,26.00
2018-07-26T06:58:31.594Z,26.30
2018-07-26T07:01:02.233Z,26.40
2018-07-26T07:03:32.815Z,26.50
2018-07-26T07:06:04.618Z,26.50
2018-07-26T07:08:35.511Z,26.70
2018-07-26T07:11:07.025Z,26.70
2018-07-26T07:13:37.669Z,26.80
2018-07-26T07:16:08.293Z,26.90
2018-07-26T07:18:38.898Z,27.00
2018-07-26T07:21:09.825Z,27.20
2018-07-26T07:26:10.703Z,27.30
2018-07-26T07:28:41.426Z,27.40
2018-07-26T07:31:12.529Z,27.50
2018-07-26T07:33:43.465Z,27.70
2018-07-26T07:36:14.095Z,27.80
2018-07-26T07:38:45.309Z,28.00
2018-07-26T07:41:16.238Z,28.10
2018-07-26T07:43:48.308Z,28.20
2018-07-26T07:46:18.789Z,28.30
2018-07-26T07:48:50.678Z,28.40
2018-07-26T07:51:21.665Z,28.50
2018-07-26T07:53:52.552Z,28.60
2018-07-26T07:56:23.094Z,28.80
2018-07-26T07:58:53.695Z,28.80
2018-07-26T08:03:55.472Z,29.00
2018-07-26T08:06:27.289Z,29.20
2018-07-26T08:08:57.903Z,29.40
2018-07-26T08:11:28.398Z,29.50
2018-07-26T08:13:59.215Z,29.50
2018-07-26T08:16:29.727Z,29.70
2018-07-26T08:19:01.654Z,29.70
2018-07-26T08:21:32.236Z,29.80
2018-07-26T08:24:04.164Z,29.90
2018-07-26T08:26:35.113Z,29.80
2018-07-26T08:29:05.849Z,29.80
2018-07-26T08:31:36.346Z,30.00
2018-07-26T08:34:07.473Z,30.00
2018-07-26T08:36:39.383Z,30.00
2018-07-26T08:39:12.224Z,30.10
2018-07-26T08:41:43.133Z,30.10
2018-07-26T08:44:23.001Z,30.20
2018-07-26T08:46:53.713Z,30.30
2018-07-26T08:49:24.493Z,30.40
2018-07-26T08:51:55.179Z,30.50
2018-07-26T08:54:26.361Z,30.60
2018-07-26T08:56:57.129Z,30.60
2018-07-26T08:59:28.114Z,30.70
2018-07-26T09:01:58.711Z,30.50
2018-07-26T09:04:29.827Z,30.40
2018-07-26T09:07:00.322Z,30.50
2018-07-26T09:09:30.812Z,30.60
2018-07-26T09:12:01.663Z,30.70
2018-07-26T09:14:32.974Z,30.80
2018-07-26T09:17:03.490Z,30.90
2018-07-26T09:19:34.807Z,31.00
2018-07-26T09:22:05.497Z,31.00
2018-07-26T09:27:06.394Z,31.10
2018-07-26T09:29:36.930Z,31.30
2018-07-26T09:32:08.065Z,31.50
2018-07-26T09:34:38.573Z,31.70
2018-07-26T09:37:09.072Z,31.80
2018-07-26T09:39:40.003Z,31.90
2018-07-26T09:42:10.549Z,32.00
2018-07-26T09:44:41.010Z,32.10
2018-07-26T09:47:11.545Z,32.30
2018-07-26T09:49:42.700Z,32.40
2018-07-26T09:52:13.402Z,32.40
2018-07-26T09:54:44.322Z,32.30
2018-07-26T09:57:15.253Z,32.30
2018-07-26T09:59:45.934Z,32.50
2018-07-26T10:02:17.026Z,32.50
2018-07-26T10:04:47.849Z,32.60
2018-07-26T10:07:18.725Z,32.70
2018-07-26T10:09:50.340Z,32.80
2018-07-26T10:14:51.309Z,32.80
2018-07-26T10:17:21.850Z,33.00
2018-07-26T10:19:54.590Z,33.20
2018-07-26T10:22:25.639Z,33.10
2018-07-26T10:24:56.329Z,33.20
2018-07-26T10:27:27.016Z,33.20
2018-07-26T10:29:58.288Z,33.20
2018-07-26T10:32:29.136Z,33.40
2018-07-26T10:34:59.630Z,33.60
2018-07-26T10:37:31.335Z,33.70
2018-07-26T10:40:02.157Z,33.70
2018-07-26T10:45:02.974Z,33.90
2018-07-26T10:47:33.548Z,34.10
2018-07-26T10:50:05.872Z,34.10
2018-07-26T10:52:36.392Z,34.10
2018-07-26T10:55:07.922Z,34.10
2018-07-26T10:57:39.693Z,34.00
2018-07-26T11:00:10.507Z,34.10
2018-07-26T11:02:41.007Z,34.40
2018-07-26T11:05:11.729Z,34.60
2018-07-26T11:07:42.746Z,34.90
2018-07-26T11:10:14.101Z,34.90
2018-07-26T11:12:44.926Z,35.10
2018-07-26T11:15:21.860Z,35.20
2018-07-26T11:17:52.237Z,35.10
2018-07-26T11:20:22.803Z,35.50
2018-07-26T11:22:53.839Z,35.80
2018-07-26T11:25:25.005Z,36.00
2018-07-26T11:27:56.189Z,36.20
2018-07-26T11:30:27.392Z,36.10
2018-07-26T11:32:58.262Z,35.80
2018-07-26T11:35:29.073Z,36.00
2018-07-26T11:38:00.489Z,35.70
2018-07-26T11:40:32.538Z,36.00
2018-07-26T11:43:03.329Z,36.00
2018-07-26T11:45:34.618Z,36.40
2018-07-26T11:48:05.198Z,36.40
2018-07-26T11:54:01.105Z,37.70
2018-07-26T11:56:31.745Z,38.90
2018-07-26T11:59:02.498Z,39.30
2018-07-26T12:01:33.793Z,39.60
2018-07-26T12:04:04.471Z,40.00
2018-07-26T12:06:35.385Z,40.00
2018-07-26T12:09:09.269Z,40.20
2018-07-26T12:11:53.388Z,40.50
2018-07-26T12:14:29.441Z,40.20
2018-07-26T12:17:02.036Z,40.30
2018-07-26T12:19:36.184Z,40.30
2018-07-26T12:22:09.082Z,39.40
2018-07-26T12:24:39.795Z,38.50
2018-07-26T12:27:10.554Z,38.10
2018-07-26T12:29:41.550Z,37.70
2018-07-26T12:32:13.363Z,37.60
2018-07-26T12:34:44.521Z,37.30
2018-07-26T12:37:15.888Z,37.30
2018-07-26T12:39:46.961Z,38.40
2018-07-26T12:42:17.661Z,39.10
2018-07-26T12:44:50.200Z,39.30
2018-07-26T12:47:22.526Z,39.40
2018-07-26T12:49:53.984Z,39.80
2018-07-26T12:52:30.655Z,40.30
2018-07-26T12:55:02.834Z,40.70
2018-07-26T12:57:34.010Z,40.80
2018-07-26T13:00:06.186Z,42.00
2018-07-26T13:02:36.781Z,42.50
2018-07-26T13:05:07.892Z,43.20
2018-07-26T13:10:09.238Z,43.80
2018-07-26T13:12:39.805Z,42.60
2018-07-26T13:15:10.870Z,43.00
2018-07-26T13:17:42.077Z,44.40
2018-07-26T13:20:14.264Z,45.50
2018-07-26T13:22:46.314Z,45.50
2018-07-26T13:25:18.560Z,46.10
2018-07-26T13:27:49.580Z,46.70
2018-07-26T13:30:20.268Z,45.70
2018-07-26T13:32:51.297Z,45.20
2018-07-26T13:35:22.735Z,44.70
2018-07-26T13:37:54.054Z,44.00
2018-07-26T13:42:57.397Z,40.60
2018-07-26T13:47:58.521Z,39.00
2018-07-26T13:50:29.471Z,40.20
2018-07-26T13:53:00.421Z,41.40
2018-07-26T13:55:31.133Z,41.90
2018-07-26T13:58:02.201Z,43.50
2018-07-26T14:03:07.201Z,44.90
2018-07-26T14:05:37.757Z,45.30
2018-07-26T14:08:09.094Z,45.70
2018-07-26T14:10:40.434Z,46.10
2018-07-26T14:13:17.657Z,46.30
2018-07-26T14:15:48.806Z,47.40
2018-07-26T14:18:19.445Z,47.30
2018-07-26T14:20:50.832Z,46.90
2018-07-26T14:23:26.725Z,46.20
2018-07-26T14:25:57.381Z,45.00
2018-07-26T14:28:28.529Z,43.40
2018-07-26T14:31:05.300Z,41.90
2018-07-26T14:36:10.053Z,38.90
2018-07-26T14:38:41.142Z,38.60
2018-07-26T14:41:11.761Z,38.80
2018-07-26T14:43:42.645Z,38.40
2018-07-26T14:46:13.740Z,37.80
2018-07-26T14:48:44.418Z,37.20
2018-07-26T14:51:15.393Z,37.00
2018-07-26T14:53:46.290Z,36.80
2018-07-26T14:56:16.866Z,36.40
2018-07-26T14:58:47.662Z,36.00
2018-07-26T15:01:18.289Z,37.20
2018-07-26T15:03:49.506Z,38.70
2018-07-26T15:06:20.174Z,39.20
2018-07-26T15:08:50.909Z,39.90
2018-07-26T15:11:22.032Z,40.20
2018-07-26T15:13:52.755Z,40.60
2018-07-26T15:16:23.318Z,40.30
2018-07-26T15:18:54.210Z,41.00
2018-07-26T15:21:24.790Z,42.10
2018-07-26T15:23:55.394Z,43.50
2018-07-26T15:26:26.656Z,43.10
2018-07-26T15:28:57.584Z,41.90
2018-07-26T15:31:28.281Z,41.70
2018-07-26T15:33:59.190Z,41.50
2018-07-26T15:36:29.755Z,41.50
2018-07-26T15:39:00.348Z,41.10
2018-07-26T15:41:30.901Z,40.50
2018-07-26T15:44:02.218Z,40.20
2018-07-26T15:46:33.118Z,39.50
2018-07-26T15:49:04.329Z,39.60
2018-07-26T15:51:34.933Z,40.00
2018-07-26T15:54:06.108Z,40.60
2018-07-26T15:56:36.958Z,41.60
2018-07-26T15:59:07.662Z,42.20
2018-07-26T16:01:38.654Z,41.80
2018-07-26T16:04:09.717Z,41.60
2018-07-26T16:06:40.242Z,41.50
2018-07-26T16:09:12.582Z,41.40
2018-07-26T16:11:43.149Z,41.40
2018-07-26T16:14:16.618Z,41.60
2018-07-26T16:19:17.995Z,40.20
2018-07-26T16:21:49.474Z,39.90
2018-07-26T16:24:20.965Z,39.90
2018-07-26T16:26:51.742Z,40.20
2018-07-26T16:29:22.378Z,40.50
2018-07-26T16:31:53.058Z,41.00
2018-07-26T16:34:25.123Z,40.70
2018-07-26T16:36:55.905Z,40.30
2018-07-26T16:39:27.074Z,40.10
2018-07-26T16:41:57.891Z,40.10
2018-07-26T16:44:28.479Z,40.00
2018-07-26T16:47:01.769Z,39.90
2018-07-26T16:49:32.734Z,39.50
2018-07-26T16:52:03.594Z,39.30
2018-07-26T16:54:34.325Z,39.40
2018-07-26T16:57:04.901Z,39.10
2018-07-26T16:59:36.613Z,39.20
2018-07-26T17:02:07.215Z,39.30
2018-07-26T17:04:38.205Z,39.20
2018-07-26T17:07:09.582Z,39.30
2018-07-26T17:09:40.262Z,39.20
2018-07-26T17:12:11.214Z,39.30
2018-07-26T17:14:42.141Z,39.10
2018-07-26T17:17:12.690Z,39.30
2018-07-26T17:19:43.410Z,39.00
2018-07-26T17:22:14.059Z,38.30
2018-07-26T17:24:44.978Z,38.20
2018-07-26T17:27:15.489Z,38.50
2018-07-26T17:39:18.237Z,36.90
2018-07-26T17:41:49.058Z,37.10
2018-07-26T17:44:19.906Z,37.50
2018-07-26T17:46:50.996Z,37.50
2018-07-26T17:49:21.953Z,37.20
2018-07-26T17:51:52.656Z,37.10
2018-07-26T17:54:23.486Z,36.70
2018-07-26T17:56:54.165Z,36.50
2018-07-26T17:59:25.067Z,36.30
2018-07-26T18:01:56.074Z,35.90
2018-07-26T18:04:27.948Z,35.80
2018-07-26T18:06:58.541Z,35.50
2018-07-26T18:09:29.225Z,35.30
2018-07-26T18:12:00.217Z,35.20
2018-07-26T18:14:31.026Z,35.20
2018-07-26T18:17:01.933Z,35.20
2018-07-26T18:19:32.506Z,35.10
2018-07-26T18:22:03.409Z,35.00
2018-07-26T18:24:34.306Z,34.70
2018-07-26T18:27:05.033Z,34.50
2018-07-26T18:29:36.005Z,34.20
2018-07-26T18:32:06.765Z,34.20
2018-07-26T18:34:37.978Z,33.70
2018-07-26T18:37:08.944Z,33.40
2018-07-26T18:39:39.721Z,33.00
2018-07-26T18:42:10.370Z,32.90
2018-07-26T18:44:42.185Z,32.80
2018-07-26T18:47:12.794Z,32.80
2018-07-26T18:49:43.502Z,32.60
2018-07-26T18:52:14.996Z,32.30
2018-07-26T18:54:46.750Z,32.10
2018-07-26T18:57:17.572Z,32.00
2018-07-26T18:59:48.674Z,31.80
2018-07-26T19:02:20.177Z,31.50
2018-07-26T19:04:51.021Z,31.30
2018-07-26T19:07:21.590Z,31.00
2018-07-26T19:09:52.491Z,30.70
2018-07-26T19:12:23.060Z,30.40
2018-07-26T19:14:53.625Z,30.20
2018-07-26T19:17:24.604Z,29.90
2018-07-26T19:19:55.521Z,29.70
2018-07-26T19:22:26.258Z,29.50
2018-07-26T19:24:57.601Z,29.30
2018-07-26T19:27:28.301Z,29.20
2018-07-26T19:29:59.037Z,29.00
2018-07-26T19:32:30.020Z,28.90
2018-07-26T19:35:00.818Z,28.70
2018-07-26T19:37:37.896Z,28.50
2018-07-26T19:40:11.734Z,28.50
2018-07-26T19:42:42.329Z,28.30
2018-07-26T19:45:13.202Z,28.20
2018-07-26T19:47:44.326Z,28.10
2018-07-26T19:50:15.076Z,28.00
2018-07-26T19:52:46.254Z,27.90
2018-07-26T19:55:17.512Z,27.80
2018-07-26T19:57:48.571Z,27.70
2018-07-26T20:00:19.306Z,27.60
2018-07-26T20:02:50.212Z,27.50
2018-07-26T20:05:21.138Z,27.50
2018-07-26T20:07:51.725Z,27.40
2018-07-26T20:10:22.957Z,27.40
2018-07-26T20:12:55.632Z,27.30
2018-07-26T20:15:26.734Z,27.30
2018-07-26T20:17:59.241Z,27.20
2018-07-26T20:20:30.174Z,27.10
2018-07-26T20:23:01.479Z,27.00
2018-07-26T20:25:32.788Z,27.00
2018-07-26T20:28:03.366Z,26.90
2018-07-26T20:30:34.173Z,26.80
2018-07-26T20:33:04.819Z,26.70
2018-07-26T20:35:35.965Z,26.70
2018-07-26T20:38:06.662Z,26.60
2018-07-26T20:40:37.385Z,26.60
2018-07-26T20:43:08.089Z,26.50
2018-07-26T20:45:38.783Z,26.50
2018-07-26T20:48:09.964Z,26.50
2018-07-26T20:50:43.939Z,26.40
2018-07-26T20:53:15.213Z,26.30
2018-07-26T20:55:46.965Z,26.30
2018-07-26T20:58:17.936Z,26.20
2018-07-26T21:00:48.863Z,26.20
2018-07-26T21:03:19.474Z,26.10
2018-07-26T21:05:50.965Z,26.00
2018-07-26T21:08:21.527Z,25.90
2018-07-26T21:10:52.530Z,25.90
2018-07-26T21:13:23.365Z,25.80
2018-07-26T21:15:57.061Z,25.80
2018-07-26T21:18:27.648Z,25.80
2018-07-26T21:20:58.599Z,25.70
2018-07-26T21:23:30.744Z,25.70
2018-07-26T21:26:04.805Z,25.70
2018-07-26T21:28:36.081Z,25.60
2018-07-26T21:31:09.256Z,25.50
2018-07-26T21:33:40.550Z,25.50
2018-07-26T21:36:11.578Z,25.50
2018-07-26T21:38:42.141Z,25.50
2018-07-26T21:41:13.622Z,25.40
2018-07-26T21:43:44.227Z,25.30
2018-07-26T21:46:15.189Z,25.20
2018-07-26T21:48:46.130Z,25.10
2018-07-26T21:51:17.241Z,25.10
2018-07-26T21:53:47.760Z,25.10
2018-07-26T21:56:18.632Z,25.10
2018-07-26T21:58:49.215Z,25.00
2018-07-26T22:01:22.975Z,25.00
2018-07-26T22:03:55.501Z,25.00
2018-07-26T22:06:31.451Z,24.90
2018-07-26T22:09:02.618Z,24.80
2018-07-26T22:11:33.747Z,24.80
2018-07-26T22:14:04.331Z,24.70
2018-07-26T22:16:35.273Z,24.70
2018-07-26T22:19:05.858Z,24.60
2018-07-26T22:21:36.872Z,24.60
2018-07-26T22:24:07.813Z,24.50
2018-07-26T22:26:38.377Z,24.50
2018-07-26T22:29:09.580Z,24.50
2018-07-26T22:31:40.441Z,24.50
2018-07-26T22:34:10.966Z,24.50
2018-07-26T22:36:42.165Z,24.50
2018-07-26T22:39:13.381Z,24.50
2018-07-26T22:41:44.300Z,24.50
2018-07-26T22:44:15.380Z,24.50
2018-07-26T22:46:46.322Z,24.40
2018-07-26T22:49:16.857Z,24.40
2018-07-26T22:51:48.161Z,24.40
2018-07-26T22:54:19.309Z,24.40
2018-07-26T22:56:49.854Z,24.40
2018-07-26T22:59:20.769Z,24.30
2018-07-26T23:01:51.449Z,24.30
2018-07-26T23:04:22.010Z,24.20
2018-07-26T23:06:52.982Z,24.20
2018-07-26T23:09:23.547Z,24.10
2018-07-26T23:11:54.246Z,24.00
2018-07-26T23:14:25.293Z,24.00
2018-07-26T23:16:56.354Z,23.90
2018-07-26T23:19:27.213Z,23.90
2018-07-26T23:21:58.297Z,23.80
2018-07-26T23:24:28.865Z,23.80
2018-07-26T23:29:30.629Z,23.70
2018-07-26T23:32:01.677Z,23.70
2018-07-26T23:34:32.653Z,23.60
2018-07-26T23:39:34.345Z,23.40
2018-07-26T23:42:05.299Z,23.30
2018-07-26T23:44:36.241Z,23.30
2018-07-26T23:47:07.113Z,23.20
2018-07-26T23:54:38.961Z,23.00
2018-07-26T23:57:09.641Z,22.90
2018-07-26T23:59:41.018Z,22.80
